Rhea I Bouchard — WRQ4509 — position and weather

sailwx.info

Track history (hours):
 
Tides and Currents Weather Stations Pressure Air Temp Water Temp Dewpoint Dewpoint Depression Visibility Wind Speed Wind Dir Waves Ship Positions

Rhea I Bouchard

Owner: Bouchard Transportation Co., Inc., MELVILLE, NY. More information available from US FCC via Universal Licensing System and Coast Guard Vessel Documentation Center.

Last reported at 2018-Aug-16 08:28 UTC. Time now 2018-Aug-16 08:44 UTC.
Position N 42°21' W 071°02'.

Length 162 m; draft 5.6 m.

Type: Towing. MMSI: 367006540.

Date/timePositionNaut miles runAvg speedWind from/ knotsBaromVisibWave heightAir tempDewpointWater temp
2018-Aug-16 08:28N 42°21' W 071°02'0 0.0
2018-Aug-16 07:58N 42°21' W 071°02'0 0.1
2018-Aug-16 07:28N 42°21' W 071°02'0 0.1
2018-Aug-16 06:59N 42°21' W 071°02'0 0.1
2018-Aug-16 06:29N 42°22' W 071°02'0 0.1
2018-Aug-16 05:59N 42°21' W 071°02'0 0.0
2018-Aug-16 05:30N 42°21' W 071°02'0 0.1
2018-Aug-16 05:00N 42°21' W 071°02'0 0.0
2018-Aug-16 04:29N 42°21' W 071°02'0 0.1
2018-Aug-16 03:59N 42°22' W 071°02'0 0.0
2018-Aug-16 03:29N 42°21' W 071°02'0 0.1
2018-Aug-16 02:59N 42°21' W 071°02'0 0.0
2018-Aug-16 02:29N 42°21' W 071°02'0 0.0
2018-Aug-16 01:59N 42°21' W 071°02'0 0.0
2018-Aug-16 01:30N 42°21' W 071°02'0 0.0
2018-Aug-16 00:59N 42°21' W 071°02'0 0.0
2018-Aug-16 00:29N 42°21' W 071°02'0 0.0
2018-Aug-15 23:59N 42°21' W 071°02'0 0.0
2018-Aug-15 23:29N 42°21' W 071°02'0 0.0
2018-Aug-15 22:59N 42°21' W 071°02'0 0.0
2018-Aug-15 22:29N 42°21' W 071°02'0 0.0
2018-Aug-15 21:59N 42°21' W 071°02'1 1.7
2018-Aug-15 21:30N 42°21' W 071°01'4 7.3
2018-Aug-15 21:00N 42°21' W 070°56'5 9.2
2018-Aug-15 20:30N 42°24' W 070°51'5 9.8
2018-Aug-15 20:00N 42°26' W 070°46'5 9.9
2018-Aug-15 19:31N 42°30' W 070°41'5 9.9
2018-Aug-15 19:00N 42°33' W 070°36'510.2
2018-Aug-15 18:30N 42°37' W 070°31'510.0
2018-Aug-15 18:00N 42°42' W 070°29'510.0
2018-Aug-15 17:30N 42°47' W 070°28'510.1
2018-Aug-15 16:59N 42°52' W 070°26'11 0.6
2018-Aug-14 22:28N 43°02' W 070°21'4 9.3
2018-Aug-14 22:00N 42°58' W 070°23'5 9.2
2018-Aug-14 21:30N 42°54' W 070°25'4 8.6
2018-Aug-14 21:00N 42°50' W 070°26'4 8.4
2018-Aug-14 20:30N 42°46' W 070°28'4 8.5
2018-Aug-14 20:00N 42°41' W 070°29'4 8.4
2018-Aug-14 19:30N 42°37' W 070°30'4 8.2
2018-Aug-14 19:00N 42°33' W 070°30'5 9.1
2018-Aug-14 18:30N 42°29' W 070°29'5 9.6
2018-Aug-14 18:00N 42°24' W 070°29'5 9.6
2018-Aug-14 17:30N 42°19' W 070°29'7 9.2
2018-Aug-14 16:45N 42°12' W 070°28'2 9.4
2018-Aug-14 16:30N 42°10' W 070°28'187 8.1
2018-Aug-13 17:29N 40°27' W 073°56'5 9.8
2018-Aug-13 16:59N 40°28' W 074°02'5 9.8
2018-Aug-13 16:30N 40°30' W 074°08'7 3.7
2018-Aug-13 14:34N 40°36' W 074°12'111.0
2018-Aug-13 14:30N 40°37' W 074°12'2 4.5
2018-Aug-13 13:59N 40°39' W 074°10'0 0.0
2018-Aug-13 13:30N 40°39' W 074°10'0 0.4
2018-Aug-13 13:00N 40°39' W 074°10'3 6.6
2018-Aug-13 12:30N 40°39' W 074°06'0 0.0
2018-Aug-13 12:00N 40°39' W 074°06'0 0.0
2018-Aug-13 11:30N 40°39' W 074°06'0 0.0
2018-Aug-13 11:00N 40°39' W 074°06'0 0.0
2018-Aug-13 10:30N 40°39' W 074°06'0 0.0
2018-Aug-13 10:00N 40°39' W 074°06'0 0.0
2018-Aug-13 09:30N 40°39' W 074°06'0 0.1
2018-Aug-13 09:01N 40°39' W 074°06'4 7.3
2018-Aug-13 08:30N 40°36' W 074°02'1 1.5
2018-Aug-13 07:58N 40°35' W 074°02'0 0.0
2018-Aug-13 07:30N 40°35' W 074°02'4 8.9
2018-Aug-13 07:00N 40°39' W 074°05'12 0.5
2018-Aug-12 08:52N 40°30' W 074°15'0 0.0
2018-Aug-12 06:58N 40°30' W 074°15'0 0.0
2018-Aug-12 05:10N 40°30' W 074°15'0 0.0
2018-Aug-12 04:58N 40°30' W 074°15'0 0.0
2018-Aug-12 03:22N 40°30' W 074°15'0 0.0
2018-Aug-12 02:58N 40°30' W 074°15'7 0.6
2018-Aug-11 14:18N 40°36' W 074°12'3 8.6
2018-Aug-11 14:00N 40°39' W 074°11'4 8.1
2018-Aug-11 13:30N 40°39' W 074°06'3 5.8
2018-Aug-11 12:58N 40°40' W 074°02'0 0.0
2018-Aug-11 12:28N 40°40' W 074°02'0 0.8
2018-Aug-11 12:00N 40°40' W 074°02'3 6.8
2018-Aug-11 11:30N 40°39' W 074°06'0 0.0
2018-Aug-11 11:00N 40°39' W 074°06'0 0.0
2018-Aug-11 10:30N 40°39' W 074°06'0 0.0
2018-Aug-11 10:00N 40°39' W 074°06'0 0.0
2018-Aug-11 09:30N 40°39' W 074°06'0 0.0
2018-Aug-11 09:00N 40°39' W 074°06'0 0.0
2018-Aug-11 08:30N 40°39' W 074°06'0 0.0
2018-Aug-11 08:00N 40°39' W 074°06'1 2.0
2018-Aug-11 07:30N 40°39' W 074°07'1 1.2
2018-Aug-11 07:00N 40°39' W 074°07'0 0.0
2018-Aug-11 06:30N 40°39' W 074°07'0 0.0
2018-Aug-11 06:00N 40°39' W 074°07'0 0.0
2018-Aug-11 05:28N 40°39' W 074°07'0 0.0
2018-Aug-11 05:00N 40°39' W 074°07'0 0.0
2018-Aug-11 04:30N 40°39' W 074°07'0 0.0
2018-Aug-11 04:00N 40°39' W 074°07'0 0.0
2018-Aug-11 03:28N 40°39' W 074°07'0 0.0
2018-Aug-11 03:00N 40°39' W 074°07'0 0.0
2018-Aug-11 02:30N 40°39' W 074°07'0 0.0
2018-Aug-11 02:00N 40°39' W 074°07'0 0.0
2018-Aug-11 01:30N 40°39' W 074°07'0 0.1
2018-Aug-11 01:00N 40°39' W 074°07'0 0.0
2018-Aug-11 00:31N 40°39' W 074°07'0 0.0
2018-Aug-11 00:00N 40°39' W 074°07'0 0.0
2018-Aug-10 23:30N 40°39' W 074°07'1 1.2
2018-Aug-10 23:00N 40°39' W 074°07'4 3.5
2018-Aug-10 21:44N 40°36' W 074°12'2 6.6
2018-Aug-10 21:30N 40°38' W 074°12'4 8.1
2018-Aug-10 21:00N 40°39' W 074°07'5 9.5
2018-Aug-10 20:29N 40°41' W 074°01'4 7.6
2018-Aug-10 20:00N 40°44' W 073°58'6 8.0
2018-Aug-10 19:17N 40°48' W 073°53'40 7.7
2018-Aug-10 14:09N 41°03' W 073°05'510.3
2018-Aug-10 13:38N 41°05' W 072°58'210.7
2018-Aug-10 13:29N 41°05' W 072°56'510.6
2018-Aug-10 13:00N 41°07' W 072°50'511.0
2018-Aug-10 12:30N 41°08' W 072°43'611.2
2018-Aug-10 12:00N 41°09' W 072°35'611.7
2018-Aug-10 11:30N 41°10' W 072°28'712.2
2018-Aug-10 10:55N 41°12' W 072°19'511.7
2018-Aug-10 10:29N 41°14' W 072°12'92 8.7
2018-Aug-09 23:51N 42°06' W 070°31'610.1
2018-Aug-09 23:18N 42°11' W 070°34'310.2
2018-Aug-09 23:00N 42°13' W 070°37'510.0
2018-Aug-09 22:30N 42°17' W 070°41'5 9.8
2018-Aug-09 22:00N 42°20' W 070°46'5 9.6
2018-Aug-09 21:30N 42°23' W 070°51'5 9.1
2018-Aug-09 21:00N 42°21' W 070°56'4 8.7
2018-Aug-09 20:30N 42°21' W 071°02'2 3.9
2018-Aug-09 20:01N 42°23' W 071°01'0 0.9
2018-Aug-09 19:30N 42°24' W 071°01'0 0.0
2018-Aug-09 18:57N 42°24' W 071°01'0 0.0
2018-Aug-09 18:28N 42°24' W 071°01'0 0.0
2018-Aug-09 18:00N 42°24' W 071°01'0 0.0
2018-Aug-09 17:30N 42°24' W 071°01'0 0.0
2018-Aug-09 16:58N 42°24' W 071°01'0 0.0
2018-Aug-09 16:28N 42°24' W 071°01'0 0.0
2018-Aug-09 15:58N 42°24' W 071°01'0 0.0
2018-Aug-09 15:30N 42°24' W 071°01'0 0.0
2018-Aug-09 14:58N 42°24' W 071°01'0 0.0
2018-Aug-09 14:30N 42°24' W 071°01'0 0.0
2018-Aug-09 13:58N 42°24' W 071°01'0 0.0
2018-Aug-09 13:30N 42°24' W 071°01'0 0.0
2018-Aug-09 12:58N 42°24' W 071°01'0 0.0
2018-Aug-09 12:30N 42°24' W 071°01'0 0.0
2018-Aug-09 11:57N 42°24' W 071°01'0 0.0
2018-Aug-09 11:30N 42°24' W 071°01'0 0.0
2018-Aug-09 10:59N 42°24' W 071°01'0 0.0
2018-Aug-09 10:29N 42°24' W 071°01'0 0.0
2018-Aug-09 09:59N 42°24' W 071°01'0 0.0
2018-Aug-09 09:29N 42°24' W 071°01'0 0.0
2018-Aug-09 08:59N 42°24' W 071°01'0 0.0
2018-Aug-09 08:29N 42°24' W 071°01'0 0.0
2018-Aug-09 07:59N 42°24' W 071°01'0 0.0
2018-Aug-09 07:29N 42°24' W 071°01'0 0.0
2018-Aug-09 07:00N 42°24' W 071°01'0 0.2
2018-Aug-09 06:30N 42°23' W 071°01'2 3.1
2018-Aug-09 06:00N 42°23' W 071°03'2 4.6
2018-Aug-09 05:30N 42°21' W 071°01'3 6.4
2018-Aug-09 05:00N 42°20' W 070°57'4 7.2
2018-Aug-09 04:30N 42°23' W 070°53'4 8.1
2018-Aug-09 04:00N 42°22' W 070°48'5 8.9
2018-Aug-09 03:29N 42°20' W 070°43'4 9.0
2018-Aug-09 03:00N 42°16' W 070°38'92 7.6
2018-Aug-08 14:57N 41°14' W 072°09'511.6
2018-Aug-08 14:30N 41°13' W 072°15'510.9
2018-Aug-08 14:00N 41°12' W 072°22'510.4
2018-Aug-08 13:30N 41°10' W 072°29'5 9.8
2018-Aug-08 13:00N 41°08' W 072°35'5 9.3
2018-Aug-08 12:30N 41°07' W 072°41'43 9.1
2018-Aug-08 07:44N 40°56' W 073°36'310.0
2018-Aug-08 07:23N 40°54' W 073°40'410.2
2018-Aug-08 06:59N 40°52' W 073°45'7 8.2
2018-Aug-08 06:04N 40°48' W 073°53'2 8.3
2018-Aug-08 05:51N 40°47' W 073°55'3 8.5
2018-Aug-08 05:30N 40°45' W 073°58'4 7.5
2018-Aug-08 05:00N 40°42' W 074°00'4 7.3
2018-Aug-08 04:30N 40°39' W 074°04'2 4.3
2018-Aug-08 04:00N 40°39' W 074°07'0 0.2
2018-Aug-08 03:30N 40°39' W 074°07'1 1.1
2018-Aug-08 03:00N 40°39' W 074°07'1 3.0
2018-Aug-08 02:30N 40°39' W 074°05'5 9.2
2018-Aug-08 02:01N 40°42' W 074°00'0 0.4
2018-Aug-08 01:31N 40°41' W 074°00'2 5.0
2018-Aug-08 01:01N 40°39' W 074°02'0 0.1
2018-Aug-08 00:28N 40°39' W 074°02'0 0.2
2018-Aug-07 23:58N 40°39' W 074°02'0 0.2
2018-Aug-07 23:28N 40°39' W 074°02'0 0.3
2018-Aug-07 23:00N 40°40' W 074°02'3 5.2
2018-Aug-07 22:31N 40°42' W 074°00'0 0.2
2018-Aug-07 22:00N 40°42' W 074°00'2 4.5
2018-Aug-07 21:30N 40°40' W 074°02'511.0
2018-Aug-07 21:00N 40°39' W 074°09'4 0.3
2018-Aug-07 08:33N 40°36' W 074°12'0 0.0
2018-Aug-07 08:27N 40°36' W 074°12'0 0.0
2018-Aug-07 08:00N 40°36' W 074°12'0 0.0
2018-Aug-07 07:18N 40°36' W 074°12'0 0.0
2018-Aug-07 06:57N 40°36' W 074°12'0 0.0
2018-Aug-07 06:30N 40°36' W 074°12'3 0.6
2018-Aug-07 00:35N 40°39' W 074°10'2 8.5
2018-Aug-07 00:23N 40°39' W 074°08'3 6.3
2018-Aug-06 23:58N 40°39' W 074°05'2 5.2
2018-Aug-06 23:30N 40°40' W 074°02'2 3.5
2018-Aug-06 22:55N 40°39' W 074°04'1 2.7
2018-Aug-06 22:27N 40°39' W 074°06'0 0.0
2018-Aug-06 21:15N 40°39' W 074°06'0 0.0
2018-Aug-06 21:00N 40°39' W 074°06'0 0.0
2018-Aug-06 19:48N 40°39' W 074°06'0 0.0
2018-Aug-06 18:42N 40°39' W 074°06'0 0.0
2018-Aug-06 18:15N 40°39' W 074°06'0 0.0
2018-Aug-06 17:57N 40°39' W 074°06'0 0.0
2018-Aug-06 16:42N 40°39' W 074°06'0 0.0
2018-Aug-06 16:18N 40°39' W 074°06'0 0.0
2018-Aug-06 16:00N 40°39' W 074°06'0 0.0
2018-Aug-06 15:21N 40°39' W 074°06'0 0.0
2018-Aug-06 15:00N 40°39' W 074°06'0 0.0
2018-Aug-06 14:03N 40°39' W 074°06'0 0.0
2018-Aug-06 13:45N 40°39' W 074°06'0 0.0
2018-Aug-06 13:21N 40°39' W 074°06'0 0.0
2018-Aug-06 12:57N 40°39' W 074°06'0 0.0
2018-Aug-06 12:30N 40°39' W 074°06'  
Track history (hours):
 
Tides and Currents Weather Stations Pressure Air Temp Water Temp Dewpoint Dewpoint Depression Visibility Wind Speed Wind Dir Waves Ship Positions

Rhea I Bouchard

Owner: Bouchard Transportation Co., Inc., MELVILLE, NY. More information available from US FCC via Universal Licensing System and Coast Guard Vessel Documentation Center.

Last reported at 2018-Aug-16 08:28 UTC. Time now 2018-Aug-16 08:44 UTC.
Position N 42°21' W 071°02'.

Length 162 m; draft 5.6 m.

Type: Towing. MMSI: 367006540.

Date/timePositionNaut miles runAvg speedWind from/ knotsBaromVisibWave heightAir tempDewpointWater temp
2018-Aug-16 08:28N 42°21' W 071°02'0 0.0
2018-Aug-16 07:58N 42°21' W 071°02'0 0.1
2018-Aug-16 07:28N 42°21' W 071°02'0 0.1
2018-Aug-16 06:59N 42°21' W 071°02'0 0.1
2018-Aug-16 06:29N 42°22' W 071°02'0 0.1
2018-Aug-16 05:59N 42°21' W 071°02'0 0.0
2018-Aug-16 05:30N 42°21' W 071°02'0 0.1
2018-Aug-16 05:00N 42°21' W 071°02'0 0.0
2018-Aug-16 04:29N 42°21' W 071°02'0 0.1
2018-Aug-16 03:59N 42°22' W 071°02'0 0.0
2018-Aug-16 03:29N 42°21' W 071°02'0 0.1
2018-Aug-16 02:59N 42°21' W 071°02'0 0.0
2018-Aug-16 02:29N 42°21' W 071°02'0 0.0
2018-Aug-16 01:59N 42°21' W 071°02'0 0.0
2018-Aug-16 01:30N 42°21' W 071°02'0 0.0
2018-Aug-16 00:59N 42°21' W 071°02'0 0.0
2018-Aug-16 00:29N 42°21' W 071°02'0 0.0
2018-Aug-15 23:59N 42°21' W 071°02'0 0.0
2018-Aug-15 23:29N 42°21' W 071°02'0 0.0
2018-Aug-15 22:59N 42°21' W 071°02'0 0.0
2018-Aug-15 22:29N 42°21' W 071°02'0 0.0
2018-Aug-15 21:59N 42°21' W 071°02'1 1.7
2018-Aug-15 21:30N 42°21' W 071°01'4 7.3
2018-Aug-15 21:00N 42°21' W 070°56'5 9.2
2018-Aug-15 20:30N 42°24' W 070°51'5 9.8
2018-Aug-15 20:00N 42°26' W 070°46'5 9.9
2018-Aug-15 19:31N 42°30' W 070°41'5 9.9
2018-Aug-15 19:00N 42°33' W 070°36'510.2
2018-Aug-15 18:30N 42°37' W 070°31'510.0
2018-Aug-15 18:00N 42°42' W 070°29'510.0
2018-Aug-15 17:30N 42°47' W 070°28'510.1
2018-Aug-15 16:59N 42°52' W 070°26'11 0.6
2018-Aug-14 22:28N 43°02' W 070°21'4 9.3
2018-Aug-14 22:00N 42°58' W 070°23'5 9.2
2018-Aug-14 21:30N 42°54' W 070°25'4 8.6
2018-Aug-14 21:00N 42°50' W 070°26'4 8.4
2018-Aug-14 20:30N 42°46' W 070°28'4 8.5
2018-Aug-14 20:00N 42°41' W 070°29'4 8.4
2018-Aug-14 19:30N 42°37' W 070°30'4 8.2
2018-Aug-14 19:00N 42°33' W 070°30'5 9.1
2018-Aug-14 18:30N 42°29' W 070°29'5 9.6
2018-Aug-14 18:00N 42°24' W 070°29'5 9.6
2018-Aug-14 17:30N 42°19' W 070°29'7 9.2
2018-Aug-14 16:45N 42°12' W 070°28'2 9.4
2018-Aug-14 16:30N 42°10' W 070°28'187 8.1
2018-Aug-13 17:29N 40°27' W 073°56'5 9.8
2018-Aug-13 16:59N 40°28' W 074°02'5 9.8
2018-Aug-13 16:30N 40°30' W 074°08'7 3.7
2018-Aug-13 14:34N 40°36' W 074°12'111.0
2018-Aug-13 14:30N 40°37' W 074°12'2 4.5
2018-Aug-13 13:59N 40°39' W 074°10'0 0.0
2018-Aug-13 13:30N 40°39' W 074°10'0 0.4
2018-Aug-13 13:00N 40°39' W 074°10'3 6.6
2018-Aug-13 12:30N 40°39' W 074°06'0 0.0
2018-Aug-13 12:00N 40°39' W 074°06'0 0.0
2018-Aug-13 11:30N 40°39' W 074°06'0 0.0
2018-Aug-13 11:00N 40°39' W 074°06'0 0.0
2018-Aug-13 10:30N 40°39' W 074°06'0 0.0
2018-Aug-13 10:00N 40°39' W 074°06'0 0.0
2018-Aug-13 09:30N 40°39' W 074°06'0 0.1
2018-Aug-13 09:01N 40°39' W 074°06'4 7.3
2018-Aug-13 08:30N 40°36' W 074°02'1 1.5
2018-Aug-13 07:58N 40°35' W 074°02'0 0.0
2018-Aug-13 07:30N 40°35' W 074°02'4 8.9
2018-Aug-13 07:00N 40°39' W 074°05'12 0.5
2018-Aug-12 08:52N 40°30' W 074°15'0 0.0
2018-Aug-12 06:58N 40°30' W 074°15'0 0.0
2018-Aug-12 05:10N 40°30' W 074°15'0 0.0
2018-Aug-12 04:58N 40°30' W 074°15'0 0.0
2018-Aug-12 03:22N 40°30' W 074°15'0 0.0
2018-Aug-12 02:58N 40°30' W 074°15'7 0.6
2018-Aug-11 14:18N 40°36' W 074°12'3 8.6
2018-Aug-11 14:00N 40°39' W 074°11'4 8.1
2018-Aug-11 13:30N 40°39' W 074°06'3 5.8
2018-Aug-11 12:58N 40°40' W 074°02'0 0.0
2018-Aug-11 12:28N 40°40' W 074°02'0 0.8
2018-Aug-11 12:00N 40°40' W 074°02'3 6.8
2018-Aug-11 11:30N 40°39' W 074°06'0 0.0
2018-Aug-11 11:00N 40°39' W 074°06'0 0.0
2018-Aug-11 10:30N 40°39' W 074°06'0 0.0
2018-Aug-11 10:00N 40°39' W 074°06'0 0.0
2018-Aug-11 09:30N 40°39' W 074°06'0 0.0
2018-Aug-11 09:00N 40°39' W 074°06'0 0.0
2018-Aug-11 08:30N 40°39' W 074°06'0 0.0
2018-Aug-11 08:00N 40°39' W 074°06'1 2.0
2018-Aug-11 07:30N 40°39' W 074°07'1 1.2
2018-Aug-11 07:00N 40°39' W 074°07'0 0.0
2018-Aug-11 06:30N 40°39' W 074°07'0 0.0
2018-Aug-11 06:00N 40°39' W 074°07'0 0.0
2018-Aug-11 05:28N 40°39' W 074°07'0 0.0
2018-Aug-11 05:00N 40°39' W 074°07'0 0.0
2018-Aug-11 04:30N 40°39' W 074°07'0 0.0
2018-Aug-11 04:00N 40°39' W 074°07'0 0.0
2018-Aug-11 03:28N 40°39' W 074°07'0 0.0
2018-Aug-11 03:00N 40°39' W 074°07'0 0.0
2018-Aug-11 02:30N 40°39' W 074°07'0 0.0
2018-Aug-11 02:00N 40°39' W 074°07'0 0.0
2018-Aug-11 01:30N 40°39' W 074°07'0 0.1
2018-Aug-11 01:00N 40°39' W 074°07'0 0.0
2018-Aug-11 00:31N 40°39' W 074°07'0 0.0
2018-Aug-11 00:00N 40°39' W 074°07'0 0.0
2018-Aug-10 23:30N 40°39' W 074°07'1 1.2
2018-Aug-10 23:00N 40°39' W 074°07'4 3.5
2018-Aug-10 21:44N 40°36' W 074°12'2 6.6
2018-Aug-10 21:30N 40°38' W 074°12'4 8.1
2018-Aug-10 21:00N 40°39' W 074°07'5 9.5
2018-Aug-10 20:29N 40°41' W 074°01'4 7.6
2018-Aug-10 20:00N 40°44' W 073°58'6 8.0
2018-Aug-10 19:17N 40°48' W 073°53'40 7.7
2018-Aug-10 14:09N 41°03' W 073°05'510.3
2018-Aug-10 13:38N 41°05' W 072°58'210.7
2018-Aug-10 13:29N 41°05' W 072°56'510.6
2018-Aug-10 13:00N 41°07' W 072°50'511.0
2018-Aug-10 12:30N 41°08' W 072°43'611.2
2018-Aug-10 12:00N 41°09' W 072°35'611.7
2018-Aug-10 11:30N 41°10' W 072°28'712.2
2018-Aug-10 10:55N 41°12' W 072°19'511.7
2018-Aug-10 10:29N 41°14' W 072°12'92 8.7
2018-Aug-09 23:51N 42°06' W 070°31'610.1
2018-Aug-09 23:18N 42°11' W 070°34'310.2
2018-Aug-09 23:00N 42°13' W 070°37'510.0
2018-Aug-09 22:30N 42°17' W 070°41'5 9.8
2018-Aug-09 22:00N 42°20' W 070°46'5 9.6
2018-Aug-09 21:30N 42°23' W 070°51'5 9.1
2018-Aug-09 21:00N 42°21' W 070°56'4 8.7
2018-Aug-09 20:30N 42°21' W 071°02'2 3.9
2018-Aug-09 20:01N 42°23' W 071°01'0 0.9
2018-Aug-09 19:30N 42°24' W 071°01'0 0.0
2018-Aug-09 18:57N 42°24' W 071°01'0 0.0
2018-Aug-09 18:28N 42°24' W 071°01'0 0.0
2018-Aug-09 18:00N 42°24' W 071°01'0 0.0
2018-Aug-09 17:30N 42°24' W 071°01'0 0.0
2018-Aug-09 16:58N 42°24' W 071°01'0 0.0
2018-Aug-09 16:28N 42°24' W 071°01'0 0.0
2018-Aug-09 15:58N 42°24' W 071°01'0 0.0
2018-Aug-09 15:30N 42°24' W 071°01'0 0.0
2018-Aug-09 14:58N 42°24' W 071°01'0 0.0
2018-Aug-09 14:30N 42°24' W 071°01'0 0.0
2018-Aug-09 13:58N 42°24' W 071°01'0 0.0
2018-Aug-09 13:30N 42°24' W 071°01'0 0.0
2018-Aug-09 12:58N 42°24' W 071°01'0 0.0
2018-Aug-09 12:30N 42°24' W 071°01'0 0.0
2018-Aug-09 11:57N 42°24' W 071°01'0 0.0
2018-Aug-09 11:30N 42°24' W 071°01'0 0.0
2018-Aug-09 10:59N 42°24' W 071°01'0 0.0
2018-Aug-09 10:29N 42°24' W 071°01'0 0.0
2018-Aug-09 09:59N 42°24' W 071°01'0 0.0
2018-Aug-09 09:29N 42°24' W 071°01'0 0.0
2018-Aug-09 08:59N 42°24' W 071°01'0 0.0
2018-Aug-09 08:29N 42°24' W 071°01'0 0.0
2018-Aug-09 07:59N 42°24' W 071°01'0 0.0
2018-Aug-09 07:29N 42°24' W 071°01'0 0.0
2018-Aug-09 07:00N 42°24' W 071°01'0 0.2
2018-Aug-09 06:30N 42°23' W 071°01'2 3.1
2018-Aug-09 06:00N 42°23' W 071°03'2 4.6
2018-Aug-09 05:30N 42°21' W 071°01'3 6.4
2018-Aug-09 05:00N 42°20' W 070°57'4 7.2
2018-Aug-09 04:30N 42°23' W 070°53'4 8.1
2018-Aug-09 04:00N 42°22' W 070°48'5 8.9
2018-Aug-09 03:29N 42°20' W 070°43'4 9.0
2018-Aug-09 03:00N 42°16' W 070°38'92 7.6
2018-Aug-08 14:57N 41°14' W 072°09'511.6
2018-Aug-08 14:30N 41°13' W 072°15'510.9
2018-Aug-08 14:00N 41°12' W 072°22'510.4
2018-Aug-08 13:30N 41°10' W 072°29'5 9.8
2018-Aug-08 13:00N 41°08' W 072°35'5 9.3
2018-Aug-08 12:30N 41°07' W 072°41'43 9.1
2018-Aug-08 07:44N 40°56' W 073°36'310.0
2018-Aug-08 07:23N 40°54' W 073°40'410.2
2018-Aug-08 06:59N 40°52' W 073°45'7 8.2
2018-Aug-08 06:04N 40°48' W 073°53'2 8.3
2018-Aug-08 05:51N 40°47' W 073°55'3 8.5
2018-Aug-08 05:30N 40°45' W 073°58'4 7.5
2018-Aug-08 05:00N 40°42' W 074°00'4 7.3
2018-Aug-08 04:30N 40°39' W 074°04'2 4.3
2018-Aug-08 04:00N 40°39' W 074°07'0 0.2
2018-Aug-08 03:30N 40°39' W 074°07'1 1.1
2018-Aug-08 03:00N 40°39' W 074°07'1 3.0
2018-Aug-08 02:30N 40°39' W 074°05'5 9.2
2018-Aug-08 02:01N 40°42' W 074°00'0 0.4
2018-Aug-08 01:31N 40°41' W 074°00'2 5.0
2018-Aug-08 01:01N 40°39' W 074°02'0 0.1
2018-Aug-08 00:28N 40°39' W 074°02'0 0.2
2018-Aug-07 23:58N 40°39' W 074°02'0 0.2
2018-Aug-07 23:28N 40°39' W 074°02'0 0.3
2018-Aug-07 23:00N 40°40' W 074°02'3 5.2
2018-Aug-07 22:31N 40°42' W 074°00'0 0.2
2018-Aug-07 22:00N 40°42' W 074°00'2 4.5
2018-Aug-07 21:30N 40°40' W 074°02'511.0
2018-Aug-07 21:00N 40°39' W 074°09'4 0.3
2018-Aug-07 08:33N 40°36' W 074°12'0 0.0
2018-Aug-07 08:27N 40°36' W 074°12'0 0.0
2018-Aug-07 08:00N 40°36' W 074°12'0 0.0
2018-Aug-07 07:18N 40°36' W 074°12'0 0.0
2018-Aug-07 06:57N 40°36' W 074°12'0 0.0
2018-Aug-07 06:30N 40°36' W 074°12'3 0.6
2018-Aug-07 00:35N 40°39' W 074°10'2 8.5
2018-Aug-07 00:23N 40°39' W 074°08'3 6.3
2018-Aug-06 23:58N 40°39' W 074°05'2 5.2
2018-Aug-06 23:30N 40°40' W 074°02'2 3.5
2018-Aug-06 22:55N 40°39' W 074°04'1 2.7
2018-Aug-06 22:27N 40°39' W 074°06'0 0.0
2018-Aug-06 21:15N 40°39' W 074°06'0 0.0
2018-Aug-06 21:00N 40°39' W 074°06'0 0.0
2018-Aug-06 19:48N 40°39' W 074°06'0 0.0
2018-Aug-06 18:42N 40°39' W 074°06'0 0.0
2018-Aug-06 18:15N 40°39' W 074°06'0 0.0
2018-Aug-06 17:57N 40°39' W 074°06'0 0.0
2018-Aug-06 16:42N 40°39' W 074°06'0 0.0
2018-Aug-06 16:18N 40°39' W 074°06'0 0.0
2018-Aug-06 16:00N 40°39' W 074°06'0 0.0
2018-Aug-06 15:21N 40°39' W 074°06'0 0.0
2018-Aug-06 15:00N 40°39' W 074°06'0 0.0
2018-Aug-06 14:03N 40°39' W 074°06'0 0.0
2018-Aug-06 13:45N 40°39' W 074°06'0 0.0
2018-Aug-06 13:21N 40°39' W 074°06'0 0.0
2018-Aug-06 12:57N 40°39' W 074°06'0 0.0
2018-Aug-06 12:30N 40°39' W 074°06'  

Dump ship's entire track history